Time;durP1;ratioP1;P1;durP2;ratioP2;P2;SDS_P1;SDS_P2;PMS_P1;PMS_P2;Temp;Humidity;BMP_temperature;BMP_pressure;BME280_temperature;BME280_humidity;BME280_pressure;Samples;Min_cycle;Max_cycle;Signal;HPM_P1;HPM_P2
2022/06/28 00:02:03;;;;;;;18.23;4.13;;;;;;;27.49;44.76;100523.50;4960522;28;20054;-82
2022/06/28 00:04:48;;;;;;;15.75;3.63;;;;;;;27.34;44.89;100520.25;4958403;28;20046;-82
2022/06/28 00:07:32;;;;;;;19.25;3.38;;;;;;;27.45;45.03;100520.00;4957279;28;20046;-81
2022/06/28 00:10:18;;;;;;;17.45;3.92;;;;;;;27.64;44.38;100530.34;4957624;28;20522;-82
2022/06/28 00:13:03;;;;;;;27.08;4.75;;;;;;;27.61;44.97;100526.44;4941311;29;20551;-82
2022/06/28 00:16:06;;;;;;;15.38;4.00;;;;;;;27.57;45.28;100522.16;4942159;29;20050;-82
2022/06/28 00:18:51;;;;;;;25.83;3.83;;;;;;;27.35;45.51;100529.44;4922717;29;20426;-82
2022/06/28 00:21:36;;;;;;;15.02;3.53;;;;;;;27.34;45.12;100520.25;4921356;29;20063;-81
2022/06/28 00:24:21;;;;;;;19.90;3.95;;;;;;;27.37;44.72;100521.41;4920244;29;20059;-82
2022/06/28 00:27:06;;;;;;;19.23;4.82;;;;;;;27.30;45.02;100527.94;4936240;29;20054;-81
2022/06/28 00:29:51;;;;;;;13.65;4.00;;;;;;;27.27;45.02;100525.25;4945426;28;20516;-82
2022/06/28 00:32:36;;;;;;;20.70;4.22;;;;;;;27.19;44.94;100528.19;4946916;28;20524;-84
2022/06/28 00:35:21;;;;;;;18.08;3.42;;;;;;;27.06;45.52;100530.06;4945520;29;20053;-82
2022/06/28 00:38:06;;;;;;;15.55;3.35;;;;;;;26.73;46.54;100523.56;4948984;28;20054;-81
2022/06/28 00:40:53;;;;;;;18.23;3.78;;;;;;;26.74;46.83;100522.34;4961070;28;20062;-82
2022/06/28 00:43:38;;;;;;;13.57;3.72;;;;;;;26.70;46.85;100523.66;4959107;28;20070;-81
2022/06/28 00:46:23;;;;;;;24.00;4.75;;;;;;;26.66;46.57;100520.94;4956818;28;20073;-81
2022/06/28 00:49:10;;;;;;;18.88;3.90;;;;;;;26.77;46.40;100517.91;4957476;28;20054;-81
2022/06/28 00:51:57;;;;;;;13.02;4.10;;;;;;;26.65;46.68;100521.34;4958281;28;20120;-82
2022/06/28 00:54:41;;;;;;;16.10;3.25;;;;;;;26.60;46.84;100527.44;4945583;29;20043;-82
2022/06/28 00:57:26;;;;;;;12.98;3.40;;;;;;;26.62;46.80;100517.41;4949198;28;20050;-82
2022/06/28 01:00:11;;;;;;;11.75;3.00;;;;;;;26.63;46.53;100518.19;4956039;28;20054;-82
2022/06/28 01:02:56;;;;;;;29.30;3.58;;;;;;;26.60;46.93;100530.22;4957802;28;20042;-82
2022/06/28 01:05:42;;;;;;;16.63;2.75;;;;;;;26.43;46.99;100528.56;4961456;28;20054;-81
2022/06/28 01:08:27;;;;;;;19.67;3.97;;;;;;;26.41;46.82;100525.44;4955321;28;20054;-81
2022/06/28 01:11:19;;;;;;;18.38;3.10;;;;;;;26.34;47.19;100529.91;4955071;28;20046;-81
2022/06/28 01:14:07;;;;;;;19.65;3.90;;;;;;;26.29;47.62;100544.34;4956698;29;20074;-82
2022/06/28 01:17:24;;;;;;;28.55;3.35;;;;;;;26.29;47.58;100538.00;4946355;29;20046;-82
2022/06/28 01:20:15;;;;;;;19.20;3.40;;;;;;;26.22;47.42;100535.31;4948351;28;20050;-82
2022/06/28 01:23:21;;;;;;;20.23;3.22;;;;;;;26.56;46.29;100540.69;4958684;28;20065;-82
2022/06/28 01:26:16;;;;;;;22.05;3.70;;;;;;;26.29;46.97;100546.34;4957247;29;20050;-82
2022/06/28 01:29:03;;;;;;;25.30;3.67;;;;;;;26.09;47.65;100545.50;4957177;28;20063;-82
2022/06/28 01:32:03;;;;;;;24.60;3.83;;;;;;;25.97;48.72;100544.88;4957043;28;20054;-82
2022/06/28 01:34:50;;;;;;;16.38;4.72;;;;;;;25.76;49.72;100542.44;4960055;28;20046;-82
2022/06/28 01:37:38;;;;;;;31.88;4.75;;;;;;;25.78;49.35;100533.69;4939604;28;20059;-81
2022/06/28 01:40:24;;;;;;;19.50;3.75;;;;;;;25.90;49.20;100536.66;4945561;29;20042;-82
2022/06/28 01:43:09;;;;;;;12.13;3.28;;;;;;;25.88;49.00;100535.50;4937913;29;20409;-81
2022/06/28 01:45:58;;;;;;;20.38;3.20;;;;;;;26.05;48.28;100528.84;4939544;29;20055;-82
2022/06/28 01:48:43;;;;;;;19.17;4.25;;;;;;;26.05;48.25;100534.41;4937133;29;20067;-82
2022/06/28 01:51:32;;;;;;;23.50;4.60;;;;;;;26.21;48.20;100526.13;4940514;29;20051;-82
2022/06/28 01:54:17;;;;;;;15.63;3.75;;;;;;;26.29;48.38;100544.34;4938695;29;20054;-82
2022/06/28 01:57:02;;;;;;;16.52;3.58;;;;;;;26.28;48.79;100548.34;4941198;29;20516;-82
2022/06/28 01:59:55;;;;;;;15.57;3.77;;;;;;;26.21;48.83;100539.31;4945480;29;20043;-81
2022/06/28 02:03:00;;;;;;;16.07;4.47;;;;;;;26.10;49.16;100553.44;4956044;28;20293;-82
2022/06/28 02:05:44;;;;;;;17.15;3.47;;;;;;;26.26;48.74;100536.81;4965569;28;20050;-82
2022/06/28 02:08:35;;;;;;;22.05;4.38;;;;;;;26.27;48.65;100541.19;4960218;28;20054;-81
2022/06/28 02:11:23;;;;;;;14.43;2.97;;;;;;;26.10;49.10;100539.50;4960619;28;20043;-81
2022/06/28 02:14:10;;;;;;;11.18;3.38;;;;;;;25.99;49.56;100533.31;4964570;28;20050;-82
2022/06/28 02:16:56;;;;;;;8.15;3.55;;;;;;;26.21;49.28;100523.34;4948025;28;20528;-81
2022/06/28 02:19:41;;;;;;;14.80;3.13;;;;;;;26.12;49.69;100513.97;4953436;28;20081;-81
2022/06/28 02:22:26;;;;;;;16.42;4.13;;;;;;;26.03;49.76;100520.09;4940091;29;20055;-82
2022/06/28 02:25:11;;;;;;;17.50;3.88;;;;;;;25.95;49.90;100529.81;4922596;29;20552;-82
2022/06/28 02:27:56;;;;;;;17.25;3.67;;;;;;;25.86;49.69;100532.34;4922949;29;20520;-82
2022/06/28 02:30:41;;;;;;;20.05;4.00;;;;;;;25.80;49.80;100534.81;4939573;29;20059;-82
2022/06/28 02:33:25;;;;;;;17.85;3.85;;;;;;;25.65;49.69;100538.28;4922010;29;20052;-81
2022/06/28 02:42:04;;;;;;;16.58;4.55;;;;;;;25.72;49.82;100552.09;4954376;28;20059;-82
2022/06/28 02:44:49;;;;;;;20.13;4.80;;;;;;;25.80;49.36;100550.78;4960106;28;20054;-81
2022/06/28 02:47:34;;;;;;;20.05;6.13;;;;;;;25.78;49.50;100559.53;4963302;28;20054;-82
2022/06/28 02:50:19;;;;;;;19.55;6.05;;;;;;;25.55;50.56;100551.94;4958933;28;20050;-84
2022/06/28 02:53:06;;;;;;;18.15;5.10;;;;;;;25.67;50.11;100553.34;4959995;28;20439;-81
2022/06/28 02:55:52;;;;;;;21.00;5.10;;;;;;;25.34;51.04;100549.47;4963926;28;20349;-82
2022/06/28 02:58:37;;;;;;;22.73;5.07;;;;;;;25.18;51.30;100549.28;4946213;28;20054;-82
2022/06/28 03:01:22;;;;;;;16.17;5.75;;;;;;;25.25;51.10;100548.38;4951095;29;20436;-81
2022/06/28 03:04:07;;;;;;;20.60;6.70;;;;;;;25.32;50.68;100546.28;4953826;28;20042;-82
2022/06/28 03:06:52;;;;;;;21.25;7.10;;;;;;;25.48;50.29;100545.66;4942817;29;20520;-82
2022/06/28 03:09:36;;;;;;;20.83;6.65;;;;;;;25.34;50.32;100540.31;4940505;29;20062;-81
2022/06/28 03:12:22;;;;;;;24.42;6.38;;;;;;;25.26;50.64;100547.97;4944616;29;20047;-82
2022/06/28 03:15:08;;;;;;;25.92;7.57;;;;;;;25.42;50.13;100542.56;4940399;29;20059;-81
2022/06/28 03:17:53;;;;;;;25.90;7.88;;;;;;;25.42;50.19;100541.78;4941050;29;20070;-81
2022/06/28 03:20:40;;;;;;;20.38;6.53;;;;;;;25.46;49.88;100542.50;4940715;29;20059;-82
2022/06/28 03:23:26;;;;;;;24.45;6.93;;;;;;;25.27;50.42;100538.41;4942587;28;20038;-82
2022/06/28 03:26:10;;;;;;;24.63;8.48;;;;;;;25.36;50.13;100527.53;4959800;28;20058;-82
2022/06/28 03:28:55;;;;;;;22.25;6.97;;;;;;;25.33;50.36;100533.97;4959195;28;20073;-81
2022/06/28 03:31:40;;;;;;;22.65;7.13;;;;;;;25.23;50.96;100534.91;4959695;29;20042;-82
2022/06/28 03:34:26;;;;;;;23.25;7.32;;;;;;;25.14;51.41;100531.84;4960369;28;20062;-81
2022/06/28 03:37:10;;;;;;;22.02;7.75;;;;;;;25.19;51.15;100539.72;4958602;28;20046;-81
2022/06/28 03:40:04;;;;;;;41.97;7.45;;;;;;;25.21;50.82;100531.72;4957246;28;20050;-80
2022/06/28 03:42:49;;;;;;;19.40;6.35;;;;;;;25.09;51.00;100537.88;4946966;28;20066;-82
2022/06/28 03:45:34;;;;;;;24.27;6.68;;;;;;;24.99;51.38;100531.22;4942930;29;20568;-82
2022/06/28 03:48:38;;;;;;;20.75;5.60;;;;;;;25.00;51.33;100538.38;4920647;29;20614;-81
2022/06/28 03:51:47;;;;;;;28.33;6.47;;;;;;;25.11;50.85;100539.03;4933847;29;20520;-82
2022/06/28 03:54:40;;;;;;;24.75;5.47;;;;;;;25.25;50.22;100546.38;4920190;29;20047;-81
2022/06/28 03:57:35;;;;;;;27.88;5.95;;;;;;;25.22;50.09;100550.00;4921179;29;20063;-82
2022/06/28 04:00:20;;;;;;;19.63;4.78;;;;;;;25.15;49.88;100547.31;4920623;29;20055;-82
2022/06/28 04:03:08;;;;;;;27.88;5.53;;;;;;;25.32;49.40;100535.16;4928286;29;20066;-82
2022/06/28 04:06:02;;;;;;;14.13;4.13;;;;;;;25.43;48.87;100546.94;4937218;29;20050;-82
2022/06/28 04:08:47;;;;;;;15.75;4.43;;;;;;;25.50;48.73;100557.94;4948784;28;20061;-82
2022/06/28 04:11:32;;;;;;;26.05;4.88;;;;;;;25.64;49.05;100553.41;4948779;28;20046;-80
2022/06/28 04:14:17;;;;;;;17.38;3.85;;;;;;;25.79;48.56;100551.97;4944453;29;20046;-81
2022/06/28 04:17:03;;;;;;;9.30;3.92;;;;;;;25.86;48.45;100543.47;4945635;28;20054;-82
2022/06/28 04:20:02;;;;;;;15.57;4.07;;;;;;;26.03;47.83;100528.47;4938067;28;20038;-83
2022/06/28 04:22:50;;;;;;;23.75;4.85;;;;;;;26.12;47.76;100527.91;4930067;29;20047;-82
2022/06/28 04:25:35;;;;;;;21.63;4.00;;;;;;;26.27;47.32;100530.03;4933560;29;20051;-82
2022/06/28 04:28:31;;;;;;;25.65;5.15;;;;;;;26.35;46.98;100539.88;4928108;29;20050;-81
2022/06/28 04:31:22;;;;;;;27.92;5.05;;;;;;;26.39;46.64;100532.22;4928141;29;20047;-83
2022/06/28 04:34:06;;;;;;;28.02;4.20;;;;;;;26.42;46.40;100540.94;4949177;29;20419;-82
2022/06/28 04:36:56;;;;;;;20.80;4.30;;;;;;;26.44;46.54;100538.50;4942637;28;20058;-82
2022/06/28 04:39:40;;;;;;;36.63;6.18;;;;;;;26.35;46.92;100547.44;4945287;28;20050;-83
2022/06/28 04:42:31;;;;;;;47.30;6.47;;;;;;;26.26;48.61;100552.78;4949891;28;20428;-81
2022/06/28 04:45:17;;;;;;;39.60;7.63;;;;;;;26.14;48.82;100543.00;4931934;29;20051;-82
2022/06/28 04:48:17;;;;;;;23.10;5.78;;;;;;;26.11;48.91;100549.41;4934318;29;20038;-83
2022/06/28 04:51:10;;;;;;;30.17;5.70;;;;;;;26.13;48.86;100544.22;4935322;28;20050;-82
2022/06/28 04:53:57;;;;;;;21.15;4.65;;;;;;;26.15;49.23;100546.59;4940268;29;20428;-82
2022/06/28 04:56:42;;;;;;;13.45;4.20;;;;;;;26.19;48.88;100545.31;4950224;29;20051;-82
2022/06/28 04:59:27;;;;;;;20.20;5.40;;;;;;;26.22;48.85;100546.47;4932635;23;20116;-63
2022/06/28 05:02:13;;;;;;;21.30;4.55;;;;;;;26.25;48.81;100540.84;4929060;29;20051;-63
2022/06/28 05:04:58;;;;;;;18.13;4.75;;;;;;;26.29;49.24;100538.00;4938269;29;20050;-63
2022/06/28 05:07:52;;;;;;;12.27;3.47;;;;;;;26.34;48.89;100551.44;4940805;29;20062;-63
2022/06/28 05:10:43;;;;;;;18.15;5.30;;;;;;;26.40;49.06;100555.31;4914526;29;20051;-63
2022/06/28 05:13:46;;;;;;;18.05;4.93;;;;;;;26.44;48.87;100550.44;4903353;29;20056;-63
2022/06/28 05:16:33;;;;;;;19.95;3.92;;;;;;;26.48;48.48;100551.16;4899554;29;20119;-62
2022/06/28 05:19:18;;;;;;;20.88;4.45;;;;;;;26.53;48.09;100547.88;4896713;29;20055;-63
2022/06/28 05:22:04;;;;;;;20.02;4.50;;;;;;;26.57;48.29;100536.63;4903166;29;20417;-63
2022/06/28 05:24:54;;;;;;;15.80;3.90;;;;;;;26.59;48.37;100539.81;4899790;29;20056;-63
2022/06/28 05:27:40;;;;;;;13.50;4.15;;;;;;;26.64;47.92;100539.31;4896822;29;20428;-63
2022/06/28 05:30:25;;;;;;;18.30;3.75;;;;;;;26.68;47.89;100542.81;4906733;29;20416;-63
2022/06/28 05:33:10;;;;;;;26.63;4.75;;;;;;;26.73;47.33;100545.88;4924221;29;20047;-63
2022/06/28 05:35:55;;;;;;;25.38;5.15;;;;;;;26.78;46.53;100541.78;4918511;29;20063;-63
2022/06/28 05:38:40;;;;;;;20.70;4.22;;;;;;;26.82;46.37;100559.25;4923833;29;20047;-63
2022/06/28 05:41:25;;;;;;;20.70;4.00;;;;;;;26.87;45.11;100544.81;4922223;29;20055;-63
2022/06/28 05:44:11;;;;;;;18.92;3.92;;;;;;;26.91;43.80;100542.78;4925952;29;20063;-63
2022/06/28 05:46:56;;;;;;;20.63;4.05;;;;;;;26.93;44.66;100554.28;4922816;29;20067;-63
2022/06/28 05:49:41;;;;;;;20.20;5.13;;;;;;;26.96;44.98;100570.19;4912729;29;20129;-63
2022/06/28 05:52:26;;;;;;;13.65;3.83;;;;;;;27.01;45.05;100585.63;4919822;29;20062;-64
2022/06/28 05:55:12;;;;;;;18.10;3.22;;;;;;;26.99;45.33;100586.06;4918919;29;20051;-63
2022/06/28 05:57:57;;;;;;;14.98;4.53;;;;;;;27.04;45.80;100596.72;4922020;29;20519;-62
2022/06/28 06:00:42;;;;;;;21.83;4.72;;;;;;;27.08;45.79;100618.97;4919164;29;20066;-63
2022/06/28 06:03:27;;;;;;;23.17;3.92;;;;;;;27.11;46.01;100632.88;4919078;29;20051;-63
2022/06/28 06:06:12;;;;;;;25.15;4.75;;;;;;;27.15;45.75;100639.16;4921227;29;20051;-63
2022/06/28 06:08:56;;;;;;;17.63;3.88;;;;;;;27.22;46.18;100641.03;4924064;29;20066;-63
2022/06/28 06:11:44;;;;;;;19.83;3.92;;;;;;;27.26;46.14;100638.16;4918877;29;20051;-63
2022/06/28 06:14:29;;;;;;;23.83;4.53;;;;;;;27.28;45.58;100619.72;4922644;29;20058;-63
2022/06/28 06:17:14;;;;;;;17.15;3.97;;;;;;;27.32;45.65;100602.91;4918748;29;20071;-63
2022/06/28 06:19:58;;;;;;;11.88;3.15;;;;;;;27.38;45.85;100595.59;4919079;29;20051;-63
2022/06/28 06:22:45;;;;;;;13.68;3.75;;;;;;;27.44;45.87;100588.25;4918616;29;20051;-62
2022/06/28 06:25:53;;;;;;;15.90;4.10;;;;;;;27.47;45.88;100579.81;4934622;23;20039;-59
2022/06/28 06:28:38;;;;;;;18.38;3.78;;;;;;;27.50;46.05;100581.78;4917935;29;20052;-62
2022/06/28 06:31:23;;;;;;;16.90;3.25;;;;;;;27.52;45.45;100593.31;4919940;29;20448;-60
2022/06/28 06:34:10;;;;;;;22.08;3.58;;;;;;;27.55;45.19;100606.41;4918707;29;20059;-60
2022/06/28 06:37:02;;;;;;;16.00;3.30;;;;;;;27.60;44.99;100603.09;4922071;29;20145;-61
2022/06/28 06:39:48;;;;;;;20.27;3.65;;;;;;;27.62;44.47;100602.66;4919243;29;20047;-60
2022/06/28 06:42:33;;;;;;;13.27;3.47;;;;;;;27.65;44.12;100594.19;4917131;29;20075;-60
2022/06/28 06:45:23;;;;;;;13.85;2.97;;;;;;;27.70;44.41;100590.09;4917922;29;20494;-60
2022/06/28 06:48:08;;;;;;;14.05;3.20;;;;;;;27.73;44.90;100583.66;4919492;29;20079;-63
2022/06/28 06:50:54;;;;;;;18.88;4.53;;;;;;;27.78;45.15;100583.13;4918505;29;20047;-60
2022/06/28 06:53:39;;;;;;;10.32;3.42;;;;;;;27.80;45.42;100580.66;4917236;29;20043;-61
2022/06/28 06:56:25;;;;;;;16.95;3.40;;;;;;;27.85;45.19;100568.16;4917219;29;20056;-60
2022/06/28 06:59:13;;;;;;;11.30;2.95;;;;;;;27.88;43.78;100556.13;4917641;29;20408;-60
2022/06/28 07:01:59;;;;;;;14.40;2.88;;;;;;;27.92;43.77;100551.22;4920338;29;20067;-60
2022/06/28 07:04:48;;;;;;;17.20;3.25;;;;;;;27.96;43.45;100547.13;4919521;29;20047;-59
2022/06/28 07:07:33;;;;;;;15.32;3.25;;;;;;;27.98;44.17;100539.09;4917318;29;20503;-60
2022/06/28 07:10:18;;;;;;;16.85;3.65;;;;;;;28.03;44.01;100518.19;4917347;29;20538;-60
2022/06/28 07:13:03;;;;;;;21.02;3.95;;;;;;;28.05;42.86;100508.13;4920101;29;20063;-62
2022/06/28 07:15:50;;;;;;;16.40;4.57;;;;;;;28.11;42.74;100496.41;4917138;29;20048;-61
2022/06/28 07:18:40;;;;;;;11.48;2.88;;;;;;;28.15;41.53;100481.13;4921081;29;20051;-61
2022/06/28 07:21:25;;;;;;;25.23;4.72;;;;;;;28.21;41.62;100478.59;4917622;29;20075;-60
2022/06/28 07:24:12;;;;;;;16.70;3.33;;;;;;;28.26;41.43;100481.63;4917548;29;20555;-59
2022/06/28 07:26:57;;;;;;;19.70;3.28;;;;;;;28.33;41.03;100486.25;4916849;29;20555;-59
2022/06/28 07:29:41;;;;;;;25.08;4.07;;;;;;;28.39;40.25;100502.03;4916846;29;20515;-61
2022/06/28 07:32:27;;;;;;;22.45;3.45;;;;;;;28.42;40.11;100495.56;4916724;29;20495;-59
2022/06/28 07:35:32;;;;;;;28.85;4.32;;;;;;;28.49;40.73;100492.59;4921404;29;20440;-60
2022/06/28 07:38:18;;;;;;;54.50;5.70;;;;;;;28.52;41.58;100498.50;4916385;29;20074;-59
2022/06/28 07:41:34;;;;;;;36.97;6.65;;;;;;;28.57;41.46;100490.34;4918553;29;20067;-60
2022/06/28 07:44:47;;;;;;;41.90;7.50;;;;;;;28.63;41.04;100483.00;4918515;29;20063;-60
2022/06/28 07:47:33;;;;;;;43.47;6.10;;;;;;;28.62;41.91;100483.41;4919168;29;20406;-60
2022/06/28 07:53:29;;;;;;;28.17;6.32;;;;;;;28.62;41.65;100505.81;4925107;29;20043;-59
2022/06/28 07:56:28;;;;;;;30.95;4.00;;;;;;;28.61;41.76;100519.00;4909216;29;20055;-59
2022/06/28 07:59:13;;;;;;;24.13;4.32;;;;;;;28.60;41.43;100534.22;4915530;29;20060;-60
2022/06/28 08:01:57;;;;;;;22.00;4.07;;;;;;;28.60;41.40;100544.66;4921150;29;20404;-59
2022/06/28 08:04:50;;;;;;;18.60;3.97;;;;;;;28.61;42.00;100543.41;4919607;29;20437;-60
2022/06/28 08:07:35;;;;;;;26.48;3.88;;;;;;;28.61;41.15;100549.00;4915981;29;20091;-62
2022/06/28 08:10:20;;;;;;;19.70;3.72;;;;;;;28.63;41.23;100540.97;4915922;29;20051;-59
2022/06/28 08:13:07;;;;;;;26.10;4.68;;;;;;;28.61;41.35;100541.41;4915984;29;20113;-60
2022/06/28 08:15:52;;;;;;;21.85;4.30;;;;;;;28.65;42.13;100552.53;4915964;29;20051;-60
2022/06/28 08:18:38;;;;;;;28.02;4.53;;;;;;;28.64;42.27;100551.72;4916002;29;20075;-60
2022/06/28 08:21:23;;;;;;;23.75;3.65;;;;;;;28.66;42.66;100543.66;4916032;29;20416;-59
2022/06/28 08:24:08;;;;;;;28.55;6.32;;;;;;;28.69;43.64;100547.59;4917446;29;20066;-60
2022/06/28 08:26:53;;;;;;;34.42;5.70;;;;;;;28.69;43.67;100547.59;4914825;29;20051;-60
2022/06/28 08:29:41;;;;;;;29.40;4.75;;;;;;;28.69;43.26;100547.59;4915274;29;20055;-60
2022/06/28 08:32:26;;;;;;;22.77;4.15;;;;;;;28.70;42.91;100541.53;4917771;29;20051;-60
2022/06/28 08:35:12;;;;;;;30.80;4.50;;;;;;;28.71;42.61;100537.50;4914574;29;20075;-61
2022/06/28 08:37:56;;;;;;;22.75;3.38;;;;;;;28.74;42.27;100538.69;4915056;29;20059;-59
2022/06/28 08:40:42;;;;;;;22.15;4.10;;;;;;;28.77;41.99;100541.38;4917919;29;20670;-59
2022/06/28 08:43:31;;;;;;;21.58;4.05;;;;;;;28.81;41.94;100544.84;4915678;29;20047;-61
2022/06/28 08:46:16;;;;;;;16.95;3.67;;;;;;;28.79;42.33;100549.34;4915422;29;20062;-61
2022/06/28 08:49:12;;;;;;;28.30;4.45;;;;;;;28.82;42.35;100552.03;4917369;29;20436;-59
2022/06/28 08:51:57;;;;;;;23.42;4.82;;;;;;;28.83;43.09;100552.81;4915314;29;20404;-60
2022/06/28 08:54:43;;;;;;;19.30;3.40;;;;;;;28.87;43.49;100557.06;4918712;29;20262;-59
2022/06/28 08:57:30;;;;;;;21.52;3.33;;;;;;;28.92;41.71;100550.94;4914911;29;20074;-60
2022/06/28 09:00:15;;;;;;;24.20;4.43;;;;;;;28.96;41.88;100552.81;4915218;29;20055;-60
2022/06/28 09:03:01;;;;;;;26.95;4.70;;;;;;;29.02;42.31;100551.06;4918970;29;20060;-59
2022/06/28 09:05:46;;;;;;;25.83;4.18;;;;;;;29.05;42.46;100536.19;4916187;29;20055;-60
2022/06/28 09:08:31;;;;;;;28.30;4.43;;;;;;;29.10;41.96;100553.22;4914506;29;20063;-60
2022/06/28 09:11:16;;;;;;;23.50;3.67;;;;;;;29.14;42.26;100548.28;4915081;29;20546;-59
2022/06/28 09:14:01;;;;;;;31.63;4.45;;;;;;;29.21;42.57;100550.06;4914765;29;20059;-60
2022/06/28 09:16:46;;;;;;;21.17;4.28;;;;;;;29.23;42.54;100558.81;4916500;29;20075;-59
2022/06/28 09:19:34;;;;;;;47.75;5.63;;;;;;;29.24;42.81;100563.19;4918094;29;20055;-60
2022/06/28 09:22:31;;;;;;;28.05;4.28;;;;;;;29.20;42.54;100568.13;4916081;29;20412;-59
2022/06/28 09:25:26;;;;;;;19.85;3.38;;;;;;;29.23;42.83;100567.22;4916139;29;20066;-59
2022/06/28 09:28:11;;;;;;;23.73;4.15;;;;;;;29.23;43.13;100567.22;4918089;29;20051;-63
2022/06/28 09:31:22;;;;;;;34.90;6.40;;;;;;;29.29;42.52;100566.22;4915401;29;20055;-59
2022/06/28 09:34:08;;;;;;;23.90;3.72;;;;;;;29.28;42.93;100556.25;4915131;29;20051;-60
2022/06/28 09:36:57;;;;;;;26.00;3.58;;;;;;;29.30;42.99;100541.78;4914750;29;20066;-61
2022/06/28 09:39:46;;;;;;;37.78;5.97;;;;;;;29.34;42.56;100536.88;4912614;29;20066;-60
2022/06/28 09:42:31;;;;;;;28.02;4.03;;;;;;;29.35;42.28;100530.06;4920081;29;20050;-60
2022/06/28 09:45:16;;;;;;;29.95;4.53;;;;;;;29.38;42.23;100531.97;4929462;29;20523;-59
2022/06/28 09:48:02;;;;;;;32.00;4.97;;;;;;;29.43;42.62;100517.38;4913152;29;20047;-62
2022/06/28 09:50:48;;;;;;;22.27;3.67;;;;;;;29.49;42.92;100521.19;4913927;29;20055;-60
2022/06/28 09:53:35;;;;;;;29.45;4.43;;;;;;;29.63;42.48;100517.94;4909572;29;20047;-59
2022/06/28 09:56:22;;;;;;;23.95;3.92;;;;;;;29.66;41.43;100511.41;4906656;29;20051;-59
2022/06/28 09:59:08;;;;;;;23.63;3.75;;;;;;;29.71;41.12;100510.06;4925950;29;20055;-59
2022/06/28 10:01:55;;;;;;;32.45;4.97;;;;;;;29.77;40.50;100513.84;4935586;29;20116;-61
2022/06/28 10:04:40;;;;;;;30.52;3.63;;;;;;;29.81;40.07;100505.34;4914129;29;20059;-60
2022/06/28 10:07:25;;;;;;;35.13;4.13;;;;;;;29.92;39.62;100500.19;4920933;29;20043;-59
2022/06/28 10:10:10;;;;;;;28.77;3.78;;;;;;;30.01;38.81;100497.47;4914298;29;20059;-59
2022/06/28 10:16:18;;;;;;;21.50;4.00;;;;;;;30.07;37.84;100485.19;4914990;29;20097;-60
2022/06/28 10:19:04;;;;;;;39.67;6.53;;;;;;;30.02;38.29;100482.97;4919522;29;20412;-61
2022/06/28 10:21:52;;;;;;;18.85;3.42;;;;;;;30.16;37.63;100501.34;4922358;29;20047;-61
2022/06/28 10:24:52;;;;;;;13.57;2.97;;;;;;;30.31;37.25;100496.78;4918622;29;20284;-61
2022/06/28 10:27:44;;;;;;;15.30;3.40;;;;;;;30.41;36.96;100497.63;4922177;29;20070;-61
2022/06/28 10:30:30;;;;;;;21.38;2.50;;;;;;;30.47;36.65;100493.03;4937338;29;20518;-61
2022/06/28 10:33:15;;;;;;;21.33;2.70;;;;;;;30.51;36.48;100476.84;4920171;29;20408;-61
2022/06/28 10:36:12;;;;;;;29.90;2.90;;;;;;;30.69;35.02;100465.72;4918116;29;20413;-61
2022/06/28 10:39:09;;;;;;;22.60;3.30;;;;;;;30.62;36.10;100474.41;4921621;29;20059;-63
2022/06/28 10:42:06;;;;;;;11.85;2.88;;;;;;;30.58;36.28;100454.09;4919645;29;20051;-60
2022/06/28 10:44:51;;;;;;;19.67;4.28;;;;;;;30.75;34.73;100457.47;4914047;29;20055;-61
2022/06/28 10:47:36;;;;;;;21.80;3.30;;;;;;;30.69;35.45;100450.88;4917679;29;20121;-61
2022/06/28 10:50:21;;;;;;;18.05;3.17;;;;;;;30.69;35.63;100450.88;4913531;29;20058;-62
2022/06/28 10:53:06;;;;;;;15.27;3.38;;;;;;;30.66;35.53;100457.44;4925520;29;20043;-61
2022/06/28 10:56:28;;;;;;;15.50;3.08;;;;;;;30.59;35.92;100450.06;4923932;29;20249;-62
2022/06/28 10:59:15;;;;;;;29.10;4.15;;;;;;;30.65;35.66;100450.25;4938007;23;21235;-61
2022/06/28 11:02:00;;;;;;;15.05;2.88;;;;;;;30.58;36.01;100452.06;4955661;28;20407;-62
2022/06/28 11:04:46;;;;;;;20.75;2.95;;;;;;;30.62;35.67;100449.16;4965522;28;20402;-63
2022/06/28 11:07:34;;;;;;;25.67;3.60;;;;;;;30.62;35.80;100459.59;4955050;28;20046;-62
2022/06/28 11:10:19;;;;;;;22.75;3.47;;;;;;;30.67;35.46;100468.22;4954820;29;20043;-61
2022/06/28 11:13:20;;;;;;;17.13;3.38;;;;;;;30.75;35.22;100491.97;4952991;28;20063;-65
2022/06/28 11:16:09;;;;;;;15.90;3.22;;;;;;;30.82;34.98;100514.16;4940773;28;20058;-61
2022/06/28 11:19:06;;;;;;;67.97;6.75;;;;;;;30.88;35.47;100540.38;4951101;29;20055;-64
2022/06/28 11:21:55;;;;;;;21.42;3.88;;;;;;;30.93;35.19;100553.09;4951165;29;20042;-62
2022/06/28 11:24:44;;;;;;;23.15;4.47;;;;;;;30.94;35.27;100546.19;4947494;29;20129;-63
2022/06/28 11:27:29;;;;;;;24.85;3.75;;;;;;;30.85;35.06;100540.53;4946715;28;20418;-64
2022/06/28 11:30:16;;;;;;;24.17;4.30;;;;;;;30.96;34.35;100540.91;4951445;28;20058;-63
2022/06/28 11:33:01;;;;;;;26.77;5.88;;;;;;;30.95;34.66;100534.50;4954527;28;20062;-63
2022/06/28 11:35:46;;;;;;;20.92;3.83;;;;;;;30.99;34.26;100528.75;4949852;29;20062;-63
2022/06/28 11:38:31;;;;;;;21.27;3.45;;;;;;;30.97;34.32;100518.00;4954055;29;20054;-64
2022/06/28 11:41:31;;;;;;;30.10;4.55;;;;;;;31.09;33.28;100540.88;4943347;28;20050;-63
2022/06/28 11:44:18;;;;;;;27.15;4.20;;;;;;;31.18;34.18;100597.91;4949305;29;20070;-63
2022/06/28 11:47:03;;;;;;;52.95;3.58;;;;;;;31.22;34.46;100635.06;4952103;28;20529;-65
2022/06/28 11:50:16;;;;;;;36.55;4.57;;;;;;;31.24;34.32;100663.47;4961334;28;20517;-60
2022/06/28 11:53:00;;;;;;;43.28;4.75;;;;;;;31.15;35.52;100683.09;4946369;28;20050;-63
2022/06/28 11:55:52;;;;;;;31.45;5.13;;;;;;;31.10;38.28;100706.16;4954381;29;20070;-64
2022/06/28 11:58:38;;;;;;;18.55;3.55;;;;;;;31.01;37.66;100711.69;4953680;29;20046;-63
2022/06/28 12:01:24;;;;;;;22.98;3.38;;;;;;;30.94;37.66;100706.31;4954190;29;20070;-63
2022/06/28 12:04:10;;;;;;;20.80;3.13;;;;;;;30.94;38.23;100712.72;4953993;29;20050;-64
2022/06/28 12:06:55;;;;;;;32.88;3.65;;;;;;;30.93;38.95;100719.56;4954083;28;20059;-67
2022/06/28 12:09:46;;;;;;;23.90;3.17;;;;;;;30.92;39.21;100725.66;4951964;28;20050;-63
2022/06/28 12:12:30;;;;;;;22.48;3.10;;;;;;;30.84;39.32;100713.09;4946461;28;20112;-63
2022/06/28 12:15:23;;;;;;;21.00;3.10;;;;;;;30.82;39.20;100710.75;4953733;28;20775;-63
2022/06/28 12:18:09;;;;;;;16.85;3.22;;;;;;;30.75;39.58;100713.00;4952472;28;20046;-62
2022/06/28 12:20:57;;;;;;;14.00;3.75;;;;;;;30.73;39.75;100724.69;4953737;28;20054;-63
2022/06/28 12:23:51;;;;;;;24.33;3.53;;;;;;;30.64;40.62;100721.00;4953590;29;20047;-63
2022/06/28 12:26:46;;;;;;;25.88;4.30;;;;;;;30.55;39.87;100694.44;4953611;28;20050;-63
2022/06/28 12:29:31;;;;;;;26.35;5.15;;;;;;;30.52;40.59;100678.50;4953054;29;20050;-62
2022/06/28 12:32:17;;;;;;;17.13;3.70;;;;;;;30.54;41.46;100683.63;4945972;28;20046;-62
2022/06/28 12:35:05;;;;;;;16.27;3.05;;;;;;;30.50;41.00;100680.19;4953001;28;20121;-62
2022/06/28 12:37:50;;;;;;;18.25;2.72;;;;;;;30.46;40.68;100677.50;4951543;28;20058;-63
2022/06/28 12:40:35;;;;;;;17.98;3.22;;;;;;;30.42;40.45;100667.59;4937831;29;20058;-63
2022/06/28 12:43:20;;;;;;;21.60;3.50;;;;;;;30.42;40.65;100650.75;4944970;28;20054;-64
2022/06/28 12:46:05;;;;;;;10.38;3.35;;;;;;;30.45;41.94;100625.38;4951556;29;20510;-63
2022/06/28 12:48:50;;;;;;;15.50;3.83;;;;;;;30.46;41.37;100609.31;4952879;29;20058;-63
2022/06/28 12:51:36;;;;;;;11.27;3.60;;;;;;;30.47;41.75;100597.69;4947945;29;20513;-62
2022/06/28 12:54:20;;;;;;;15.18;3.22;;;;;;;30.46;42.22;100603.69;4945993;28;20042;-63
2022/06/28 12:57:05;;;;;;;16.85;3.20;;;;;;;30.43;41.95;100594.16;4952940;28;20051;-64
2022/06/28 12:59:50;;;;;;;10.30;3.17;;;;;;;30.41;41.49;100590.25;4941858;28;20051;-67
2022/06/28 13:02:35;;;;;;;11.55;2.67;;;;;;;30.41;41.67;100593.84;4940473;28;20042;-62
2022/06/28 13:05:22;;;;;;;20.25;3.65;;;;;;;30.39;41.71;100589.91;4940353;29;20047;-62